Ault, Minnesota
Current Conditions -  °F | °C
As of 4:21 PM on Monday 22 Dec 2014 (Local Time) from KTWM Reporting Station
Overcast Overcast  
Wind Chill: 32°   Ceiling: 300
Heat Index: 37°   Visibility: 2.5mi
Dew Point: 34°   Wind: 7mph
Humidity: 87%   Direction: 70°ENE
Pressure: 29.7"   Gusts: NA
Location:  47.3998°N, 91.9141°W
Report Text: KTWM 222221Z AUTO 07006KT 2 1/2SM OVC003 03/01 A2970 RMK AO2
Loading
Personal Weather Stations






























Interactive Weather Map New forecast layout! Learn more

10-Day Weather Forecast

Advertisements
Track Severe Weather on mobile